Time;durP1;ratioP1;P1;durP2;ratioP2;P2;SDS_P1;SDS_P2;PMS_P1;PMS_P2;Temp;Humidity;BMP_temperature;BMP_pressure;BME280_temperature;BME280_humidity;BME280_pressure;Samples;Min_cycle;Max_cycle;Signal;HPM_P1;HPM_P2
2022/12/13 00:00:32;;;;;;;6.40;3.38;;;;;;;3.34;75.44;98581.44;4835208;29;20409;-93
2022/12/13 00:02:59;;;;;;;4.57;3.20;;;;;;;3.27;75.01;98560.16;4852767;29;20113;-91
2022/12/13 00:05:25;;;;;;;4.95;3.13;;;;;;;3.30;75.39;98594.69;4838445;29;20041;-90
2022/12/13 00:07:52;;;;;;;4.45;3.30;;;;;;;3.24;75.75;98586.91;4843783;29;20059;-91
2022/12/13 00:10:18;;;;;;;4.88;3.50;;;;;;;3.33;76.01;98604.13;4878017;29;20139;-89
2022/12/13 00:12:44;;;;;;;5.07;3.47;;;;;;;3.19;75.59;98598.56;4873750;29;20112;-89
2022/12/13 00:15:10;;;;;;;4.50;3.13;;;;;;;3.08;76.22;98580.03;4873374;29;20047;-94
2022/12/13 00:17:36;;;;;;;5.03;3.20;;;;;;;3.46;76.41;98621.59;4872543;29;20032;-91
2022/12/13 00:20:03;;;;;;;3.70;2.85;;;;;;;3.48;75.75;98622.13;4868002;29;20036;-94
2022/12/13 00:22:29;;;;;;;4.65;3.35;;;;;;;3.38;75.63;98595.16;4877169;29;20044;-90
2022/12/13 00:24:55;;;;;;;4.75;3.40;;;;;;;3.53;75.68;98632.88;4863049;29;20052;-91
2022/12/13 00:27:22;;;;;;;4.32;3.08;;;;;;;3.19;76.02;98598.56;4858383;29;20049;-95
2022/12/13 00:29:48;;;;;;;5.30;3.30;;;;;;;3.46;76.00;98613.50;4862470;29;20045;-93
2022/12/13 00:32:14;;;;;;;5.57;3.20;;;;;;;3.47;75.94;98605.09;4859782;29;20532;-90
2022/12/13 00:34:40;;;;;;;5.20;3.10;;;;;;;3.39;75.68;98604.91;4858163;29;20447;-94
2022/12/13 00:37:12;;;;;;;5.30;3.45;;;;;;;2.98;75.90;98551.19;4858680;29;20161;-93
2022/12/13 00:39:41;;;;;;;4.95;3.33;;;;;;;3.31;76.08;98598.19;4856857;29;20037;-94
2022/12/13 00:42:07;;;;;;;4.80;3.35;;;;;;;3.33;75.67;98579.81;4873332;29;20523;-90
2022/12/13 00:44:34;;;;;;;4.40;3.20;;;;;;;3.21;75.94;98572.09;4872801;29;20073;-93
2022/12/13 00:47:00;;;;;;;6.03;3.70;;;;;;;3.55;76.15;98622.59;4889905;29;20064;-90
2022/12/13 00:49:26;;;;;;;5.07;3.58;;;;;;;3.61;76.31;98634.16;4888958;29;20064;-90
2022/12/13 00:51:52;;;;;;;4.68;3.38;;;;;;;3.55;76.25;98636.13;4875049;29;20044;-91
2022/12/13 00:54:18;;;;;;;6.18;3.67;;;;;;;3.33;76.52;98604.13;4869925;29;20041;-91
2022/12/13 00:56:45;;;;;;;5.45;4.18;;;;;;;3.13;77.01;98591.59;4868983;29;20072;-93
2022/12/13 00:59:13;;;;;;;7.47;3.92;;;;;;;3.35;77.22;98618.19;4852949;29;20103;-90
2022/12/13 01:01:39;;;;;;;4.95;3.65;;;;;;;3.00;77.31;98559.84;4857596;29;20056;-91
2022/12/13 01:04:06;;;;;;;6.25;4.70;;;;;;;3.11;77.21;98565.97;4851569;29;20045;-92
2022/12/13 01:06:45;;;;;;;5.68;4.20;;;;;;;3.16;77.16;98571.34;4868071;29;20112;-94
2022/12/13 01:09:26;;;;;;;6.13;4.00;;;;;;;3.57;76.98;98616.91;4882242;29;20037;-94
2022/12/13 01:11:58;;;;;;;6.72;4.57;;;;;;;3.04;77.15;98555.47;4847959;29;20040;-94
2022/12/13 01:14:26;;;;;;;7.35;4.35;;;;;;;3.20;77.14;98573.16;4871160;29;20052;-93
2022/12/13 01:16:54;;;;;;;;;;;;;;;3.46;77.27;98617.00;4886314;29;20092;-91
2022/12/13 01:19:22;;;;;;;8.88;5.22;;;;;;;3.01;77.03;98551.47;4872448;29;19929;-93
2022/12/13 01:21:48;;;;;;;7.45;4.65;;;;;;;3.26;77.28;98571.25;4855625;29;20503;-93
2022/12/13 01:24:14;;;;;;;5.55;3.88;;;;;;;3.27;76.75;98568.25;4866555;29;20049;-90
2022/12/13 01:26:41;;;;;;;7.50;4.70;;;;;;;3.18;77.25;98569.97;4854371;29;20463;-95
2022/12/13 01:29:07;;;;;;;8.05;4.32;;;;;;;3.39;77.15;98604.91;4836308;29;20109;-91
2022/12/13 01:31:34;;;;;;;6.25;4.25;;;;;;;3.39;77.47;98597.59;4875200;29;20095;-91
2022/12/13 01:34:09;;;;;;;6.10;4.38;;;;;;;3.44;77.52;98610.25;4853787;29;20048;-91
2022/12/13 01:36:35;;;;;;;6.50;4.25;;;;;;;3.37;77.33;98602.47;4868759;29;20518;-93
2022/12/13 01:39:02;;;;;;;9.10;5.15;;;;;;;3.27;77.21;98564.75;4866743;29;20048;-90
2022/12/13 01:41:29;;;;;;;7.70;4.50;;;;;;;3.15;77.46;98540.03;4884151;29;20065;-92
2022/12/13 01:44:01;;;;;;;6.95;4.68;;;;;;;3.24;76.86;98555.31;4854492;29;20054;-91
2022/12/13 01:46:33;;;;;;;8.43;5.05;;;;;;;3.42;76.65;98594.34;4868060;29;20041;-90
2022/12/13 01:49:07;;;;;;;6.82;4.55;;;;;;;3.61;77.53;98621.47;4851540;29;20048;-90
2022/12/13 01:51:42;;;;;;;6.25;4.07;;;;;;;3.65;76.95;98611.69;4883590;29;20056;-90
2022/12/13 01:54:12;;;;;;;6.53;4.25;;;;;;;3.28;76.90;98559.06;4882650;29;20049;-92
2022/12/13 01:56:46;;;;;;;6.80;4.38;;;;;;;3.53;76.64;98590.44;4875471;29;20045;-93
2022/12/13 01:59:16;;;;;;;7.57;4.68;;;;;;;3.82;76.35;98626.69;4930409;23;20094;-93
2022/12/13 02:01:48;;;;;;;6.50;3.90;;;;;;;3.47;76.09;98567.25;4891611;29;20087;-90
2022/12/13 02:04:19;;;;;;;6.55;4.18;;;;;;;3.58;76.02;98575.28;4876138;29;20406;-94
2022/12/13 02:06:46;;;;;;;5.40;3.88;;;;;;;3.34;75.87;98546.31;4906679;29;20072;-92
2022/12/13 02:09:13;;;;;;;7.63;4.30;;;;;;;3.55;76.22;98587.47;4877353;29;20036;-89
2022/12/13 02:11:42;;;;;;;5.70;3.63;;;;;;;3.87;76.01;98627.41;4887809;29;20031;-94
2022/12/13 02:14:08;;;;;;;6.05;4.10;;;;;;;3.44;75.80;98567.81;4877868;29;20024;-90
2022/12/13 02:16:45;;;;;;;5.63;3.83;;;;;;;3.96;75.81;98639.22;4893097;29;20055;-91
2022/12/13 02:19:35;;;;;;;7.30;3.95;;;;;;;3.87;75.48;98638.22;4888975;29;20024;-92
2022/12/13 02:22:35;;;;;;;7.63;4.00;;;;;;;3.76;75.94;98636.72;4897332;29;20050;-93
2022/12/13 02:25:48;;;;;;;6.50;3.75;;;;;;;3.49;76.06;98586.72;4891835;29;20040;-91
2022/12/13 02:28:42;;;;;;;9.35;3.90;;;;;;;3.76;76.05;98625.91;4870315;29;20140;-93
2022/12/13 02:31:13;;;;;;;6.97;3.55;;;;;;;3.43;76.20;98593.25;4878600;29;20047;-93
2022/12/13 02:33:51;;;;;;;5.57;3.70;;;;;;;3.79;76.29;98630.75;4883607;29;20044;-92
2022/12/13 02:36:32;;;;;;;4.97;3.42;;;;;;;3.76;75.95;98612.41;4874807;29;20048;-94
2022/12/13 02:39:19;;;;;;;6.18;4.00;;;;;;;3.68;75.98;98613.03;4890592;29;20076;-90
2022/12/13 02:41:49;;;;;;;6.20;3.72;;;;;;;3.77;75.90;98638.31;4874141;29;20041;-90
2022/12/13 02:44:21;;;;;;;6.20;3.60;;;;;;;3.71;76.29;98637.59;4889317;29;20039;-91
2022/12/13 02:47:09;;;;;;;5.38;3.50;;;;;;;3.64;76.79;98634.41;4889922;29;20040;-90
2022/12/13 02:49:40;;;;;;;7.55;3.47;;;;;;;3.64;76.48;98628.19;4872555;29;20036;-90
2022/12/13 02:52:09;;;;;;;7.70;4.00;;;;;;;3.19;76.64;98557.25;4898969;29;20047;-91
2022/12/13 02:54:36;;;;;;;8.52;4.25;;;;;;;3.32;76.75;98562.00;4891796;29;20099;-93
2022/12/13 02:57:02;;;;;;;6.25;3.75;;;;;;;3.38;75.84;98568.16;4877046;29;20040;-91
2022/12/13 02:59:35;;;;;;;6.38;4.07;;;;;;;3.46;76.18;98606.19;4880213;29;20058;-92
2022/12/13 03:02:23;;;;;;;7.47;3.90;;;;;;;3.59;76.08;98601.22;4901399;29;20577;-93
2022/12/13 03:08:23;;;;;;;5.47;3.20;;;;;;;3.58;76.19;98645.56;4893351;29;20043;-93
2022/12/13 03:11:13;;;;;;;14.32;5.18;;;;;;;3.53;76.50;98639.06;4899533;29;20536;-91
2022/12/13 03:13:47;;;;;;;5.55;3.50;;;;;;;3.01;76.64;98569.53;4911521;29;20057;-89
2022/12/13 03:16:22;;;;;;;5.63;3.58;;;;;;;3.14;76.38;98585.09;4903233;29;20514;-90
2022/12/13 03:18:51;;;;;;;9.15;4.22;;;;;;;3.37;76.39;98621.38;4877523;29;20045;-90
2022/12/13 03:21:17;;;;;;;6.53;3.95;;;;;;;3.25;76.53;98605.56;4905478;29;20044;-93
2022/12/13 03:23:44;;;;;;;6.03;3.77;;;;;;;3.16;76.64;98601.84;4885805;29;20040;-92
2022/12/13 03:26:15;;;;;;;9.25;4.05;;;;;;;3.20;76.97;98602.88;4909776;29;20068;-89
2022/12/13 03:28:41;;;;;;;5.95;3.90;;;;;;;3.29;77.12;98616.59;4907926;29;20040;-90
2022/12/13 03:31:08;;;;;;;5.93;4.07;;;;;;;3.44;77.12;98634.56;4867901;29;20051;-91
2022/12/13 03:33:34;;;;;;;6.93;4.40;;;;;;;3.41;77.16;98613.50;4859493;29;20036;-90
2022/12/13 03:36:01;;;;;;;6.03;4.30;;;;;;;3.41;76.19;98611.66;4876901;29;20044;-90
2022/12/13 03:38:28;;;;;;;6.53;4.45;;;;;;;3.10;76.86;98554.34;4890757;29;20100;-90
2022/12/13 03:41:09;;;;;;;7.35;4.57;;;;;;;3.29;76.38;98589.59;4878144;29;20062;-92
2022/12/13 03:43:36;;;;;;;6.35;4.07;;;;;;;3.17;76.76;98578.34;4911206;29;20044;-91
2022/12/13 03:46:02;;;;;;;8.52;4.82;;;;;;;2.99;76.81;98544.75;4896467;29;20047;-90
2022/12/13 03:48:29;;;;;;;8.10;5.07;;;;;;;3.48;76.83;98611.31;4876691;29;20037;-90
2022/12/13 03:50:56;;;;;;;7.93;4.88;;;;;;;3.34;77.18;98577.91;4907385;29;20036;-92
2022/12/13 03:53:25;;;;;;;7.72;4.75;;;;;;;3.32;76.79;98577.41;4896006;29;20119;-91
2022/12/13 03:55:52;;;;;;;8.90;5.47;;;;;;;3.36;76.86;98595.47;4900172;29;20051;-93
2022/12/13 03:58:18;;;;;;;;;;;;;;;3.71;76.86;98623.28;4896844;29;20040;-91
2022/12/13 04:00:44;;;;;;;6.43;4.60;;;;;;;3.65;76.69;98613.59;4881418;29;19947;-91
2022/12/13 04:03:10;;;;;;;6.78;4.43;;;;;;;3.33;76.40;98563.63;4883114;29;20036;-93
2022/12/13 04:05:37;;;;;;;7.13;4.60;;;;;;;3.76;76.46;98631.31;4910775;29;20048;-90
2022/12/13 04:08:04;;;;;;;8.37;5.20;;;;;;;3.68;76.43;98635.47;4864033;29;20044;-91
2022/12/13 04:10:30;;;;;;;7.43;4.40;;;;;;;3.45;76.55;98596.47;4895183;29;20300;-89
2022/12/13 04:15:47;;;;;;;7.25;4.65;;;;;;;3.87;76.90;98638.22;4909459;29;20088;-93
2022/12/13 04:18:20;;;;;;;7.93;5.03;;;;;;;3.73;76.54;98596.75;4877645;29;20068;-91
2022/12/13 04:20:48;;;;;;;9.02;4.95;;;;;;;3.28;75.97;98526.66;4923182;29;20048;-92
2022/12/13 04:23:15;;;;;;;7.63;4.38;;;;;;;3.21;76.28;98515.41;4902112;29;20075;-93
2022/12/13 04:25:47;;;;;;;8.45;4.82;;;;;;;3.19;76.82;98547.25;4853436;29;20507;-91
2022/12/13 04:28:14;;;;;;;5.63;4.30;;;;;;;3.39;76.64;98567.09;4882274;29;20583;-88
2022/12/13 04:30:40;;;;;;;7.00;4.68;;;;;;;3.74;76.67;98630.78;4885401;29;20040;-92
2022/12/13 04:33:06;;;;;;;6.13;4.18;;;;;;;3.57;76.88;98617.69;4896143;29;20095;-92
2022/12/13 04:35:34;;;;;;;8.23;4.22;;;;;;;3.59;76.98;98606.63;4880095;29;20498;-92
2022/12/13 04:38:01;;;;;;;10.25;4.50;;;;;;;3.67;76.97;98606.00;4879041;29;20118;-91
2022/12/13 04:40:28;;;;;;;8.88;4.70;;;;;;;3.57;76.90;98584.47;4880698;29;20029;-91
2022/12/13 04:42:55;;;;;;;8.35;4.90;;;;;;;3.80;76.24;98607.22;4880312;29;20045;-91
2022/12/13 04:45:22;;;;;;;6.78;4.63;;;;;;;3.83;76.39;98607.47;4868480;29;20100;-92
2022/12/13 04:47:51;;;;;;;7.57;4.97;;;;;;;3.61;76.06;98574.69;4907198;29;20123;-91
2022/12/13 04:50:23;;;;;;;7.90;4.85;;;;;;;3.57;76.25;98563.66;4863386;29;20040;-92
2022/12/13 04:52:50;;;;;;;8.10;4.70;;;;;;;3.49;76.74;98586.72;4874651;29;20045;-90
2022/12/13 04:55:17;;;;;;;8.98;4.72;;;;;;;3.30;77.11;98570.38;4911588;29;20044;-92
2022/12/13 04:57:50;;;;;;;7.57;4.90;;;;;;;3.79;77.32;98652.38;4878182;29;20047;-90
2022/12/13 05:00:16;;;;;;;7.30;5.35;;;;;;;3.88;77.46;98639.88;4906194;29;20052;-91
2022/12/13 05:02:42;;;;;;;8.30;5.28;;;;;;;3.23;77.25;98563.72;4897430;29;20072;-91
2022/12/13 05:05:10;;;;;;;8.05;4.90;;;;;;;3.84;77.00;98628.00;4898658;29;20040;-93
2022/12/13 05:07:38;;;;;;;7.32;4.97;;;;;;;3.53;76.79;98576.94;4882215;29;20074;-91
2022/12/13 05:10:13;;;;;;;7.15;4.65;;;;;;;3.89;76.86;98643.38;4883509;29;20079;-92
2022/12/13 05:12:39;;;;;;;5.90;4.28;;;;;;;3.63;76.93;98594.94;4875945;29;20055;-93
2022/12/13 05:15:06;;;;;;;5.97;4.53;;;;;;;3.98;77.50;98652.47;4876798;29;20044;-91
2022/12/13 05:17:33;;;;;;;7.50;4.60;;;;;;;4.16;76.90;98640.91;4875950;29;20032;-91
2022/12/13 05:20:00;;;;;;;7.38;4.82;;;;;;;3.55;76.63;98586.66;4880122;29;20135;-91
2022/12/13 05:22:26;;;;;;;7.45;4.47;;;;;;;3.70;76.44;98595.41;4904817;29;20166;-92
2022/12/13 05:24:54;;;;;;;9.05;6.05;;;;;;;4.10;76.13;98633.94;4911845;29;20068;-91
2022/12/13 05:27:22;;;;;;;;;;;;;;;4.08;76.54;98643.44;4878488;29;20069;-91
2022/12/13 05:29:51;;;;;;;11.55;4.93;;;;;;;3.87;76.22;98600.38;4909162;29;19925;-90
2022/12/13 05:32:17;;;;;;;6.13;4.55;;;;;;;3.93;75.81;98618.16;4867598;29;20053;-92
2022/12/13 05:34:45;;;;;;;7.00;4.50;;;;;;;3.86;75.79;98614.19;4852204;29;20065;-92
2022/12/13 05:37:11;;;;;;;10.88;5.88;;;;;;;3.72;76.19;98589.75;4854281;29;20075;-91
2022/12/13 05:39:37;;;;;;;11.70;5.57;;;;;;;4.18;75.99;98633.31;4869347;29;20049;-91
2022/12/13 05:42:04;;;;;;;7.18;5.40;;;;;;;4.17;75.78;98641.72;4869686;29;20049;-90
2022/12/13 05:44:31;;;;;;;7.10;4.72;;;;;;;4.12;75.29;98617.44;4865299;29;20044;-90
2022/12/13 05:46:58;;;;;;;7.78;5.28;;;;;;;4.20;75.35;98627.63;4887648;29;20048;-91
2022/12/13 05:49:24;;;;;;;6.57;5.03;;;;;;;3.81;75.17;98570.97;4888931;29;20075;-93
2022/12/13 05:51:51;;;;;;;8.80;5.40;;;;;;;3.75;74.90;98557.53;4910027;29;20045;-91
2022/12/13 05:54:22;;;;;;;7.82;5.30;;;;;;;4.12;74.95;98629.06;4887198;29;20017;-91
2022/12/13 05:56:48;;;;;;;12.20;5.82;;;;;;;4.02;74.88;98591.31;4868908;29;20052;-91
2022/12/13 05:59:19;;;;;;;7.57;4.65;;;;;;;4.21;74.58;98623.84;4890889;29;20044;-91
2022/12/13 06:01:47;;;;;;;6.90;4.82;;;;;;;4.50;74.68;98652.69;4813987;29;20463;-93
2022/12/13 06:04:13;;;;;;;;;;;;;;;4.60;74.35;98663.41;4873374;29;20052;-91
2022/12/13 06:06:39;;;;;;;6.82;4.85;;;;;;;4.09;74.72;98585.56;4871337;29;19923;-91
2022/12/13 06:09:10;;;;;;;6.28;4.80;;;;;;;3.93;74.28;98574.09;4860661;29;20155;-94
2022/12/13 06:11:39;;;;;;;6.75;4.88;;;;;;;3.80;75.10;98589.09;4863700;29;20073;-92
2022/12/13 06:14:08;;;;;;;7.88;5.53;;;;;;;4.03;75.47;98609.13;4892293;29;20040;-93
2022/12/13 06:16:38;;;;;;;10.68;6.10;;;;;;;3.83;74.59;98541.78;4862528;29;20083;-92
2022/12/13 06:19:07;;;;;;;7.10;5.50;;;;;;;3.91;74.31;98558.19;4860199;29;20081;-93
2022/12/13 06:21:35;;;;;;;8.65;6.15;;;;;;;4.36;74.31;98617.44;4870844;29;20028;-94
2022/12/13 06:24:18;;;;;;;9.32;6.45;;;;;;;4.13;74.91;98587.38;4887946;29;20044;-92
2022/12/13 06:26:44;;;;;;;16.27;8.10;;;;;;;4.33;74.49;98620.72;4857002;29;20065;-93
2022/12/13 06:29:10;;;;;;;12.15;7.28;;;;;;;4.33;74.24;98620.72;4859032;29;20048;-91
2022/12/13 06:31:37;;;;;;;10.80;6.67;;;;;;;4.44;74.28;98612.19;4861788;29;20037;-92
2022/12/13 06:34:05;;;;;;;9.37;6.23;;;;;;;4.22;73.75;98591.06;4883365;29;20145;-93
2022/12/13 06:36:31;;;;;;;9.07;6.25;;;;;;;4.09;73.82;98570.13;4856938;29;20045;-92
2022/12/13 06:39:06;;;;;;;8.30;5.88;;;;;;;4.59;73.62;98634.72;4883737;29;20108;-93
2022/12/13 06:41:32;;;;;;;15.50;6.90;;;;;;;4.58;73.84;98641.25;4866724;29;20041;-93
2022/12/13 06:43:59;;;;;;;10.10;6.57;;;;;;;3.98;73.50;98569.44;4882676;29;20104;-92
2022/12/13 06:46:27;;;;;;;10.43;6.15;;;;;;;4.67;74.12;98682.84;4887533;29;20025;-93
2022/12/13 06:48:54;;;;;;;10.65;6.70;;;;;;;4.28;73.63;98632.41;4847486;29;20060;-94
2022/12/13 06:51:24;;;;;;;10.00;7.18;;;;;;;4.27;74.09;98647.00;4866149;29;20116;-93
2022/12/13 06:53:51;;;;;;;10.23;7.07;;;;;;;4.26;74.32;98650.81;4859762;29;20056;-95
2022/12/13 06:56:18;;;;;;;12.27;7.18;;;;;;;4.26;74.36;98661.63;4858558;29;20475;-93
2022/12/13 06:58:44;;;;;;;11.48;7.38;;;;;;;4.52;74.30;98680.28;4868238;29;20045;-92
2022/12/13 07:01:14;;;;;;;11.13;6.67;;;;;;;4.10;73.71;98614.22;4850403;29;20052;-92
2022/12/13 07:03:41;;;;;;;11.00;6.45;;;;;;;4.27;73.91;98629.97;4860289;29;20568;-93
2022/12/13 07:06:20;;;;;;;9.98;6.88;;;;;;;4.14;73.69;98616.06;4863062;29;20056;-94
2022/12/13 07:08:53;;;;;;;14.65;8.63;;;;;;;4.60;73.53;98680.47;4875916;29;20041;-91
2022/12/13 07:11:24;;;;;;;10.88;7.93;;;;;;;4.67;73.37;98688.25;4876988;29;20527;-93
2022/12/13 07:13:52;;;;;;;9.82;7.10;;;;;;;4.22;73.97;98666.81;4829708;29;20053;-91
2022/12/13 07:16:25;;;;;;;11.45;7.75;;;;;;;4.41;74.63;98704.78;4864278;29;20045;-93
2022/12/13 07:18:57;;;;;;;11.20;7.75;;;;;;;4.52;74.86;98737.94;4868144;29;20055;-92
2022/12/13 07:21:28;;;;;;;11.77;8.60;;;;;;;4.00;74.80;98642.97;4881320;29;20041;-93
2022/12/13 07:23:58;;;;;;;16.20;8.82;;;;;;;4.72;74.34;98731.47;4863777;29;20065;-91
2022/12/13 07:26:26;;;;;;;12.18;8.23;;;;;;;4.23;74.12;98645.97;4904255;29;20132;-92
2022/12/13 07:28:55;;;;;;;12.52;7.47;;;;;;;4.65;73.71;98715.59;4899928;29;20044;-90
2022/12/13 07:31:23;;;;;;;12.52;8.50;;;;;;;4.64;73.68;98705.06;4912692;29;20421;-90
2022/12/13 07:33:53;;;;;;;13.27;7.78;;;;;;;4.76;73.67;98740.63;4879344;29;20531;-92
2022/12/13 07:36:22;;;;;;;14.18;8.55;;;;;;;4.68;73.95;98725.84;4890399;29;20048;-94
2022/12/13 07:38:54;;;;;;;14.57;8.57;;;;;;;4.45;73.88;98700.38;4858324;29;20049;-91
2022/12/13 07:41:24;;;;;;;12.50;8.15;;;;;;;4.66;73.50;98721.81;4886429;29;20040;-91
2022/12/13 07:43:56;;;;;;;15.20;8.52;;;;;;;4.98;73.53;98752.84;4887720;29;20055;-91
2022/12/13 07:46:24;;;;;;;12.15;7.82;;;;;;;4.59;73.61;98697.78;4877760;29;20041;-93
2022/12/13 07:48:50;;;;;;;14.95;8.02;;;;;;;4.66;73.34;98714.47;4890856;29;20052;-90
2022/12/13 07:51:22;;;;;;;11.80;7.63;;;;;;;4.78;73.40;98708.69;4860994;29;20113;-89
2022/12/13 07:53:55;;;;;;;11.45;7.50;;;;;;;4.60;72.97;98691.31;4877469;29;20065;-90
2022/12/13 07:56:27;;;;;;;10.52;7.47;;;;;;;4.64;73.00;98692.34;4863995;29;20052;-90
2022/12/13 07:58:53;;;;;;;11.50;7.68;;;;;;;5.00;72.92;98729.81;4863316;29;20037;-91
2022/12/13 08:01:21;;;;;;;13.70;7.63;;;;;;;5.03;72.48;98731.09;4851510;29;20181;-93
2022/12/13 08:03:49;;;;;;;11.18;7.32;;;;;;;5.16;72.11;98755.56;4856709;29;20057;-90
2022/12/13 08:06:18;;;;;;;10.63;7.80;;;;;;;4.44;73.12;98692.56;4863114;29;20061;-91
2022/12/13 08:08:44;;;;;;;11.70;7.43;;;;;;;4.89;72.68;98739.94;4872065;29;20044;-94
2022/12/13 08:11:16;;;;;;;10.80;7.53;;;;;;;4.94;72.74;98760.75;4874951;29;20049;-92
2022/12/13 08:13:42;;;;;;;13.55;7.55;;;;;;;4.82;73.16;98738.69;4883369;29;20066;-91
2022/12/13 08:16:10;;;;;;;11.60;7.68;;;;;;;4.46;72.64;98688.47;4906680;29;20506;-90
2022/12/13 08:18:38;;;;;;;10.32;7.13;;;;;;;4.74;72.62;98737.44;4875766;29;20104;-91
2022/12/13 08:21:09;;;;;;;11.70;6.75;;;;;;;4.45;73.63;98730.16;4888794;29;20044;-91
2022/12/13 08:23:37;;;;;;;11.52;7.05;;;;;;;4.75;73.58;98774.22;4898177;29;20040;-93
2022/12/13 08:26:05;;;;;;;12.40;7.28;;;;;;;4.56;73.70;98719.22;4910845;29;20414;-92
2022/12/13 08:28:32;;;;;;;12.55;8.23;;;;;;;4.36;73.22;98682.38;4911559;29;20069;-95
2022/12/13 08:31:10;;;;;;;12.90;8.00;;;;;;;4.41;73.06;98675.00;4913131;29;20048;-89
2022/12/13 08:33:36;;;;;;;9.73;7.20;;;;;;;4.75;72.34;98708.44;4898987;29;20103;-91
2022/12/13 08:36:10;;;;;;;12.98;7.78;;;;;;;5.19;72.10;98775.88;4911390;29;20055;-89
2022/12/13 08:38:43;;;;;;;9.05;6.45;;;;;;;4.78;72.18;98705.97;4874978;29;20128;-89
2022/12/13 08:41:09;;;;;;;9.88;6.75;;;;;;;5.18;71.91;98760.72;4905482;29;20047;-87
2022/12/13 08:43:37;;;;;;;11.33;7.60;;;;;;;5.27;71.94;98771.72;4893580;29;20486;-89
2022/12/13 08:46:05;;;;;;;8.93;6.18;;;;;;;5.32;71.47;98760.78;4882965;29;20510;-90
2022/12/13 08:48:32;;;;;;;10.63;7.13;;;;;;;5.16;70.90;98728.47;4878072;29;20055;-96
2022/12/13 08:51:10;;;;;;;;;;;;;;;5.32;71.50;98790.63;4878020;29;20048;-93
2022/12/13 08:53:37;;;;;;;14.20;8.50;;;;;;;5.16;71.55;98765.59;4874469;29;20591;-89
2022/12/13 08:56:08;;;;;;;13.18;7.68;;;;;;;5.08;71.86;98766.28;4875014;29;20105;-90
2022/12/13 08:58:34;;;;;;;13.35;6.97;;;;;;;5.05;71.70;98756.81;4862301;29;20044;-92
2022/12/13 09:01:09;;;;;;;8.50;5.97;;;;;;;5.32;71.45;98798.75;4912794;29;20044;-95
2022/12/13 09:03:39;;;;;;;10.48;6.50;;;;;;;5.05;71.74;98783.09;4892486;29;20071;-93
2022/12/13 09:06:13;;;;;;;9.50;6.25;;;;;;;4.99;72.20;98774.22;4896297;29;20146;-88
2022/12/13 09:08:44;;;;;;;11.43;7.88;;;;;;;5.30;71.95;98819.94;4890903;29;20032;-95
2022/12/13 09:11:12;;;;;;;12.23;6.68;;;;;;;5.19;71.58;98776.66;4906445;29;20331;-90
2022/12/13 09:13:39;;;;;;;12.68;7.25;;;;;;;5.34;71.12;98796.56;4874995;29;20048;-94
2022/12/13 09:16:11;;;;;;;;;;;;;;;5.50;71.21;98814.22;4861754;29;20526;-91
2022/12/13 09:18:37;;;;;;;9.15;6.55;;;;;;;5.15;70.83;98759.38;4877423;29;19923;-93
2022/12/13 09:21:09;;;;;;;9.60;6.72;;;;;;;5.31;71.08;98799.84;4907935;29;20040;-91
2022/12/13 09:23:36;;;;;;;9.27;6.78;;;;;;;5.25;71.59;98815.34;4888713;29;20069;-90
2022/12/13 09:26:02;;;;;;;10.05;6.57;;;;;;;5.22;72.10;98824.06;4884818;29;20051;-88
2022/12/13 09:28:29;;;;;;;9.10;6.60;;;;;;;4.87;71.89;98771.94;4889675;29;20020;-90
2022/12/13 09:30:57;;;;;;;12.48;6.78;;;;;;;5.14;71.98;98811.16;4886039;29;20045;-91
2022/12/13 09:33:30;;;;;;;12.00;7.57;;;;;;;5.23;72.43;98836.53;4891182;29;20040;-94
2022/12/13 09:35:57;;;;;;;19.80;10.23;;;;;;;5.03;72.15;98796.91;4874223;29;20048;-89
2022/12/13 09:38:23;;;;;;;16.25;9.10;;;;;;;5.02;72.58;98821.59;4843917;29;20542;-89
2022/12/13 09:40:52;;;;;;;17.15;9.63;;;;;;;4.85;72.58;98784.16;4875559;29;20052;-92
2022/12/13 09:43:30;;;;;;;23.90;8.95;;;;;;;4.84;72.27;98807.72;4870410;29;20118;-90
2022/12/13 09:45:58;;;;;;;9.52;5.70;;;;;;;4.57;71.40;98775.78;4877164;29;20064;-90
2022/12/13 09:48:25;;;;;;;8.18;4.82;;;;;;;4.74;71.51;98820.56;4872303;29;20041;-90
2022/12/13 09:51:23;;;;;;;4.82;3.00;;;;;;;4.52;71.73;98773.13;4854540;29;20050;-90
2022/12/13 09:53:52;;;;;;;4.85;3.28;;;;;;;4.85;71.26;98817.44;4862447;29;20053;-88
2022/12/13 09:56:20;;;;;;;4.28;2.30;;;;;;;4.73;70.98;98803.47;4842037;29;20065;-92
2022/12/13 09:58:52;;;;;;;3.88;2.00;;;;;;;4.83;70.66;98819.63;4861694;29;20053;-92
2022/12/13 10:01:19;;;;;;;2.35;1.70;;;;;;;4.56;71.34;98795.00;4858619;29;20064;-89
2022/12/13 10:04:01;;;;;;;2.40;1.60;;;;;;;4.80;70.82;98803.97;4850500;29;20152;-91
2022/12/13 10:06:31;;;;;;;3.00;1.80;;;;;;;4.65;70.84;98760.81;4853872;29;20108;-91
2022/12/13 10:09:15;;;;;;;3.83;1.70;;;;;;;4.49;70.16;98735.81;4850889;29;20065;-92
2022/12/13 10:12:02;;;;;;;2.65;1.65;;;;;;;5.08;70.07;98821.25;4880252;29;20135;-92
2022/12/13 10:14:35;;;;;;;3.75;1.83;;;;;;;4.99;69.40;98805.91;4861504;29;20080;-90
2022/12/13 10:17:14;;;;;;;5.28;1.90;;;;;;;4.96;70.19;98847.91;4890336;29;20070;-90
2022/12/13 10:19:50;;;;;;;3.70;2.45;;;;;;;4.69;70.68;98813.28;4835426;29;20048;-90
2022/12/13 10:22:33;;;;;;;7.13;2.93;;;;;;;4.84;71.08;98845.63;4869096;29;20044;-93
2022/12/13 10:25:04;;;;;;;2.75;1.95;;;;;;;4.76;71.35;98857.06;4900589;29;20430;-90
2022/12/13 10:27:36;;;;;;;3.72;2.33;;;;;;;4.29;71.88;98817.97;4886740;29;20443;-91
2022/12/13 10:30:09;;;;;;;3.88;2.47;;;;;;;4.80;72.14;98877.09;4889286;29;20052;-93
2022/12/13 10:32:58;;;;;;;5.15;2.90;;;;;;;4.75;71.37;98877.13;4887327;29;20076;-92
2022/12/13 10:36:30;;;;;;;7.43;3.40;;;;;;;4.78;71.36;98879.25;4879399;29;20057;-92
2022/12/13 10:41:49;;;;;;;5.22;3.13;;;;;;;4.65;71.45;98880.72;2038367;23;20302;-89
2022/12/13 10:44:24;;;;;;;6.32;3.75;;;;;;;4.76;71.87;98888.75;4877626;29;20055;-91
2022/12/13 10:47:21;;;;;;;5.22;3.25;;;;;;;4.67;71.62;98888.59;4910257;29;20048;-94
2022/12/13 10:50:27;;;;;;;6.13;3.23;;;;;;;4.26;71.18;98815.84;4874117;29;20109;-91
2022/12/13 10:52:59;;;;;;;7.28;3.30;;;;;;;4.28;71.27;98831.81;4963201;24;20335;-93
2022/12/13 10:55:29;;;;;;;5.43;3.25;;;;;;;4.34;71.98;98884.75;4895397;29;20036;-93
2022/12/13 10:58:06;;;;;;;6.35;3.33;;;;;;;3.83;72.22;98804.81;4894772;29;20072;-91
2022/12/13 11:00:36;;;;;;;4.35;3.00;;;;;;;3.96;72.07;98831.22;4873929;29;20124;-90
2022/12/13 11:03:07;;;;;;;6.72;3.20;;;;;;;4.24;72.00;98853.22;4894334;29;20080;-92
2022/12/13 11:05:37;;;;;;;6.75;2.90;;;;;;;3.79;71.77;98790.25;4879097;29;20028;-91
2022/12/13 11:08:21;;;;;;;5.95;3.22;;;;;;;3.82;71.97;98786.97;4892758;29;20079;-93
2022/12/13 11:11:05;;;;;;;9.90;3.50;;;;;;;4.35;71.66;98876.38;4894354;29;20064;-92
2022/12/13 11:14:02;;;;;;;7.90;3.95;;;;;;;4.52;71.26;98894.13;4886683;29;20497;-92
2022/12/13 11:16:52;;;;;;;8.38;4.60;;;;;;;4.65;71.78;98904.28;4894624;29;20048;-92
2022/12/13 11:19:45;;;;;;;6.28;4.10;;;;;;;4.01;71.44;98830.38;4903632;29;20147;-93
2022/12/13 11:22:23;;;;;;;8.55;4.50;;;;;;;3.84;71.71;98811.84;4898282;29;20047;-94
2022/12/13 11:24:54;;;;;;;8.38;4.30;;;;;;;4.04;72.24;98842.50;4905428;24;20483;-93
2022/12/13 11:27:46;;;;;;;10.70;4.88;;;;;;;4.43;71.75;98900.13;4841961;29;20044;-90
2022/12/13 11:30:19;;;;;;;9.27;4.47;;;;;;;4.06;71.31;98856.56;4860335;29;20068;-94
2022/12/13 11:33:19;;;;;;;9.50;4.63;;;;;;;4.28;72.14;98919.19;4861306;29;20055;-95
2022/12/13 11:35:55;;;;;;;7.85;4.47;;;;;;;4.26;71.95;98926.75;4868356;29;20053;-94
2022/12/13 11:38:47;;;;;;;9.07;4.50;;;;;;;4.26;72.14;98925.97;4849521;29;20060;-92
2022/12/13 11:41:45;;;;;;;7.85;3.70;;;;;;;4.06;71.34;98916.88;4860810;29;20045;-91
2022/12/13 11:44:49;;;;;;;8.45;4.57;;;;;;;3.91;71.80;98888.06;4879862;29;20159;-91
2022/12/13 11:47:37;;;;;;;7.80;4.78;;;;;;;4.20;71.34;98922.47;4854807;29;20053;-91
2022/12/13 11:50:20;;;;;;;7.82;4.47;;;;;;;3.65;71.58;98856.84;4826672;29;20163;-91
2022/12/13 11:53:46;;;;;;;7.85;4.18;;;;;;;3.72;71.25;98878.97;4800282;29;20058;-93
2022/12/13 11:56:12;;;;;;;11.35;5.47;;;;;;;4.14;72.72;98942.53;4786731;29;20076;-95
2022/12/13 12:02:46;;;;;;;18.75;8.40;;;;;;;3.81;71.60;98900.78;4934429;29;20086;-91
2022/12/13 12:05:42;;;;;;;18.35;9.20;;;;;;;3.71;72.58;98931.41;4912791;29;20060;-94
2022/12/13 12:08:47;;;;;;;27.55;11.98;;;;;;;4.00;72.81;98970.19;4900427;29;20032;-93
2022/12/13 12:11:53;;;;;;;18.02;9.88;;;;;;;3.62;72.70;98944.69;4916365;29;20534;-93
2022/12/13 12:14:37;;;;;;;20.60;10.25;;;;;;;3.81;73.04;98988.16;4897358;29;20411;-92
2022/12/13 12:17:13;;;;;;;19.40;9.93;;;;;;;3.29;73.30;98913.72;4929410;29;20067;-92